Latest Weather Observations for Forrest

IDW60801

Issued at 5:33 pm WST Sunday 26 June 2016 (issued every 30 minutes, with the page automatically refreshed every 10 minutes)

About weather observations | Map of weather stations | Latest weather observations for WA | Other Formats
Station Details ID: 011052 Name: FORREST Lat: -30.85 Lon: 128.11 Height: 159.0 m
Data from the previous 72 hours. | See also: Recent months at Forrest
Date/Time
WST
Temp
°C
App
Temp
°C
Dew
Point
°C
Rel
Hum
%
Delta-T
°C
Wind Press
QNH
hPa
Press
MSL
hPa
Rain since
9am
mm
Dir  Spd
km/h
Gust
km/h
Spd
kts
Gust
kts
26/05:30pm 10.5 7.2 2.6 58 3.4 S 9 11 5 6 1022.9 - 0.0
26/05:00pm 11.6 7.9 2.4 53 4.0 S 11 13 6 7 1022.7 - 0.0
26/04:30pm 13.5 8.6 1.8 45 5.1 S 17 24 9 13 1022.3 - 0.0
26/04:00pm 14.8 9.3 2.0 42 5.7 SSW 20 30 11 16 1022.1 - 0.0
26/03:30pm 15.5 9.4 3.0 43 5.7 SSW 24 33 13 18 1021.7 - 0.0
26/03:00pm 15.5 8.5 2.0 40 6.0 SSW 28 37 15 20 1021.4 1021.4 0.0
26/02:33pm 16.0 9.3 3.8 44 5.7 S 28 46 15 25 1021.1 - 0.0
26/02:30pm 16.6 10.4 4.3 44 5.8 S 26 46 14 25 1021.1 - 0.0
26/02:00pm 16.5 10.3 4.5 45 5.7 SSW 26 33 14 18 1020.8 - 0.0
26/01:30pm 16.1 9.6 4.8 47 5.4 SSW 28 39 15 21 1020.7 - 0.0
26/01:00pm 16.4 10.5 3.8 43 5.9 S 24 32 13 17 1020.7 - 0.0
26/12:30pm 15.6 8.8 3.1 43 5.7 SSW 28 37 15 20 1021.1 - 0.0
26/12:00pm 15.9 9.7 4.3 46 5.4 S 26 37 14 20 1021.3 1021.3 0.0
26/11:30am 15.3 9.0 5.8 53 4.6 SSW 28 35 15 19 1021.2 - 0.0
26/11:00am 15.4 8.2 5.0 50 4.9 SSW 32 44 17 24 1021.5 - 0.0
26/10:30am 15.3 8.3 5.8 53 4.6 SSW 32 44 17 24 1021.8 - 0.0
26/10:00am 14.3 7.3 5.9 57 4.0 SSW 32 43 17 23 1021.9 - 0.0
26/09:30am 13.6 7.6 7.2 65 3.1 SW 28 37 15 20 1021.7 - 0.0
26/09:00am 12.5 6.8 8.2 75 2.1 SW 28 33 15 18 1021.6 1021.6 0.0
26/08:30am 11.3 5.6 8.5 83 1.4 SW 28 35 15 19 1021.3 - 0.0
26/08:00am 9.7 4.3 7.8 88 0.9 WSW 26 32 14 17 1021.0 - 0.0
26/07:30am 8.4 3.5 7.0 91 0.7 WSW 22 37 12 20 1020.6 - 0.0
26/07:00am 8.2 3.3 6.8 91 0.7 WSW 22 28 12 15 1020.5 - 0.0
26/06:30am 7.5 2.5 6.3 92 0.6 WSW 22 28 12 15 1020.2 - 0.0
26/06:00am 7.5 2.7 5.6 88 0.9 WSW 20 28 11 15 1019.7 1019.7 0.0
26/05:30am 7.6 2.9 5.2 85 1.1 WSW 19 24 10 13 1019.4 - 0.0
26/05:00am 8.6 2.6 5.2 79 1.5 WSW 26 41 14 22 1019.1 - 0.0
26/04:30am 9.3 4.3 4.7 73 2.1 W 20 28 11 15 1018.7 - 0.0
26/04:00am 8.9 3.9 3.5 69 2.4 W 19 26 10 14 1018.4 - 0.0
26/03:30am 7.3 2.6 3.0 74 1.8 W 17 19 9 10 1018.1 - 0.0
26/03:00am 7.0 2.2 2.7 74 1.8 W 17 19 9 10 1018.1 1018.2 0.0
26/02:30am 6.2 1.4 2.5 77 1.5 W 17 19 9 10 1018.0 - 0.0
26/02:00am 6.4 1.6 2.7 77 1.5 W 17 19 9 10 1018.1 - 0.0
26/01:30am 5.4 0.3 2.9 84 1.0 W 19 20 10 11 1018.4 - 0.0
26/01:00am 4.8 1.1 2.3 84 1.0 NW 11 11 6 6 1018.1 - 0.0
26/12:30am 6.1 2.6 3.3 82 1.2 W 11 13 6 7 1018.1 - 0.0
26/12:00am 5.8 2.2 3.0 82 1.2 W 11 13 6 7 1018.1 1018.2 0.0
 
Date/Time
WST
Temp
°C
App
Temp
°C
Dew
Point
°C
Rel
Hum
%
Delta-T
°C
Wind Press
QNH
hPa
Press
MSL
hPa
Rain since
9am
mm
Dir  Spd
km/h
Gust
km/h
Spd
kts
Gust
kts
25/11:30pm 5.9 2.5 2.0 76 1.6 SW 9 9 5 5 1018.1 - 0.0
25/11:00pm 7.8 4.7 3.7 75 1.8 SW 9 9 5 5 1018.1 - 0.0
25/10:30pm 8.3 5.2 3.4 71 2.1 SW 9 11 5 6 1018.3 - 0.0
25/10:00pm 9.0 5.9 3.6 69 2.4 SSW 9 11 5 6 1018.4 - 0.0
25/09:30pm 10.5 7.1 3.8 63 3.0 SSW 11 15 6 8 1018.4 - 0.0
25/09:00pm 11.8 6.7 4.1 59 3.5 SSW 20 26 11 14 1018.7 1018.7 0.0
25/08:30pm 12.1 6.3 4.3 59 3.6 SW 24 33 13 18 1018.6 - 0.0
25/08:00pm 12.6 7.6 4.6 58 3.7 WSW 20 30 11 16 1018.8 - 0.0
25/07:30pm 12.8 8.3 4.3 56 3.9 WSW 17 22 9 12 1018.5 - 0.0
25/07:00pm 12.2 8.8 3.9 57 3.8 WSW 11 15 6 8 1018.1 - 0.0
25/06:30pm 12.3 9.3 4.3 58 3.7 SW 9 13 5 7 1017.9 - 0.0
25/06:00pm 12.8 9.9 4.5 57 3.8 WSW 9 11 5 6 1017.5 1017.6 0.0
25/05:30pm 14.1 11.0 3.8 50 4.7 SW 9 11 5 6 1017.3 - 0.0
25/05:00pm 14.4 11.3 3.8 49 4.9 SW 9 9 5 5 1017.2 - 0.0
25/04:30pm 14.8 11.7 3.6 47 5.1 SW 9 13 5 7 1016.6 - 0.0
25/04:00pm 15.2 11.7 3.7 46 5.3 SSW 11 15 6 8 1016.2 - 0.0
25/03:30pm 15.5 13.1 4.2 47 5.3 ENE 6 9 3 5 1015.8 - 0.0
25/03:00pm 15.8 13.3 3.9 45 5.5 ENE 6 11 3 6 1016.5 1016.5 0.0
25/02:30pm 16.1 12.7 4.2 45 5.6 SSE 11 17 6 9 1016.0 - 0.0
25/02:00pm 15.8 13.3 3.9 45 5.5 ENE 6 11 3 6 1016.3 - 0.0
25/01:30pm 15.5 12.5 4.2 47 5.3 E 9 11 5 6 1016.4 - 0.0
25/01:00pm 15.0 12.8 3.2 45 5.4 NW 4 7 2 4 1017.0 - 0.0
25/12:30pm 15.5 12.0 3.6 45 5.5 N 11 17 6 9 1017.5 - 0.0
25/12:00pm 15.1 11.2 3.6 46 5.3 ENE 13 19 7 10 1018.1 1018.2 0.0
25/11:30am 14.9 11.9 4.3 49 4.9 NE 9 13 5 7 1018.5 - 0.0
25/11:00am 14.5 11.0 5.3 54 4.4 NNE 13 19 7 10 1019.1 - 0.0
25/10:30am 13.9 10.5 5.8 58 3.9 NNE 13 19 7 10 1020.0 - 0.0
25/10:00am 13.4 8.7 6.0 61 3.5 NE 20 24 11 13 1020.3 - 0.0
25/09:30am 12.9 8.2 6.0 63 3.3 NE 20 28 11 15 1020.5 - 0.0
25/09:00am 12.0 8.3 6.3 68 2.7 NNE 15 19 8 10 1020.6 1020.6 0.0
25/08:30am 10.4 7.0 6.0 74 2.1 NNE 13 17 7 9 1020.8 - 0.0
25/08:00am 9.0 5.2 5.7 80 1.5 NE 15 19 8 10 1020.6 - 0.0
25/07:30am 7.8 5.6 5.4 85 1.1 NNE 6 11 3 6 1020.7 - 0.0
25/07:00am 6.8 4.4 5.1 89 0.8 N 7 9 4 5 1020.6 - 0.0
25/06:30am 6.3 3.1 4.9 91 0.6 ENE 11 13 6 7 1020.4 - 0.0
25/06:00am 5.6 2.3 4.4 92 0.5 ENE 11 11 6 6 1020.4 1020.4 0.0
25/05:30am 5.4 2.4 4.1 91 0.6 E 9 11 5 6 1020.2 - 0.0
25/05:00am 5.5 2.4 3.8 89 0.7 ENE 9 9 5 5 1020.2 - 0.0
25/04:30am 6.6 4.1 4.9 89 0.7 ENE 7 7 4 4 1020.2 - 0.0
25/04:00am 6.7 3.8 4.5 86 1.0 ENE 9 9 5 5 1020.1 - 0.0
25/03:30am 7.3 4.8 4.8 84 1.1 ENE 7 9 4 5 1020.1 - 0.0
25/03:00am 8.2 5.8 5.3 82 1.3 NE 7 9 4 5 1020.4 1020.4 0.0
25/02:30am 8.2 5.8 5.3 82 1.3 NE 7 7 4 4 1020.5 - 0.0
25/02:00am 8.4 5.6 5.3 81 1.4 ENE 9 9 5 5 1020.8 - 0.0
25/01:30am 8.3 5.9 5.2 81 1.4 NE 7 9 4 5 1021.1 - 0.0
25/01:00am 8.0 5.5 4.9 81 1.4 ENE 7 11 4 6 1021.1 - 0.0
25/12:30am 7.7 4.9 5.0 83 1.2 NE 9 11 5 6 1021.2 - 0.0
25/12:00am 7.0 4.0 4.3 83 1.2 NE 9 9 5 5 1021.2 1021.2 0.0
 
Date/Time
WST
Temp
°C
App
Temp
°C
Dew
Point
°C
Rel
Hum
%
Delta-T
°C
Wind Press
QNH
hPa
Press
MSL
hPa
Rain since
9am
mm
Dir  Spd
km/h
Gust
km/h
Spd
kts
Gust
kts
24/11:30pm 6.9 3.9 3.9 81 1.3 NNE 9 9 5 5 1021.5 - 0.0
24/11:00pm 7.5 4.9 4.1 79 1.5 NE 7 9 4 5 1021.7 - 0.0
24/10:30pm 8.3 5.0 4.3 76 1.8 NE 11 11 6 6 1021.9 - 0.0
24/10:00pm 9.6 6.4 5.0 73 2.1 NE 11 13 6 7 1021.9 - 0.0
24/09:30pm 10.4 7.2 5.2 70 2.4 NE 11 13 6 7 1022.0 - 0.0
24/09:00pm 11.1 7.6 5.4 68 2.6 NE 13 13 7 7 1022.0 1022.1 0.0
24/08:30pm 11.2 7.7 5.3 67 2.7 NE 13 15 7 8 1022.1 - 0.0
24/08:00pm 11.4 8.2 5.3 66 2.8 NE 11 15 6 8 1022.1 - 0.0
24/07:30pm 11.8 9.1 5.4 65 3.0 ENE 9 11 5 6 1022.1 - 0.0
24/07:00pm 12.3 9.5 5.2 62 3.3 ENE 9 13 5 7 1022.0 - 0.0
24/06:30pm 12.8 10.5 5.0 59 3.6 E 6 11 3 6 1021.9 - 0.0
24/06:00pm 13.0 11.9 4.9 58 3.8 CALM 0 4 0 2 1021.7 1021.7 0.0
24/05:30pm 13.6 11.1 4.7 55 4.1 NE 7 11 4 6 1021.5 - 0.0
24/05:00pm 13.8 12.7 5.2 56 4.1 CALM 0 0 0 0 1021.3 - 0.0
24/04:30pm 14.0 13.0 5.4 56 4.1 CALM 0 0 0 0 1021.1 - 0.0
24/04:00pm 14.2 13.1 5.0 54 4.3 CALM 0 0 0 0 1021.0 - 0.0
24/03:30pm 14.2 11.7 5.0 54 4.3 SE 7 9 4 5 1020.9 - 0.0
24/03:00pm 14.5 12.0 5.0 53 4.5 NW 7 9 4 5 1021.0 1021.0 0.0
24/02:30pm 14.6 12.2 5.1 53 4.5 W 7 11 4 6 1021.0 - 0.0
24/02:00pm 14.6 12.3 4.6 51 4.7 NW 6 9 3 5 1021.2 - 0.0
24/01:30pm 14.8 12.4 5.1 52 4.6 WNW 7 11 4 6 1021.3 - 0.0
24/01:00pm 14.4 12.1 5.0 53 4.4 N 6 7 3 4 1021.6 - 0.0
24/12:30pm 14.5 12.2 5.0 53 4.5 ESE 6 11 3 6 1021.9 - 0.0
24/12:00pm 14.5 12.2 4.8 52 4.5 NNE 6 9 3 5 1022.4 1022.5 0.0
24/11:30am 14.7 12.4 5.8 55 4.3 WNW 7 13 4 7 1022.9 - 0.0
24/11:00am 13.7 11.7 6.1 60 3.6 WNW 6 11 3 6 1023.5 - 0.0
24/10:30am 13.2 11.0 7.9 70 2.6 SW 9 13 5 7 1023.9 - 0.0
24/10:00am 12.1 9.8 7.6 74 2.2 SW 9 13 5 7 1024.1 - 0.0
24/09:30am 11.2 9.1 8.1 81 1.5 S 9 11 5 6 1024.2 - 0.0
24/09:00am 9.2 7.3 7.5 89 0.8 W 7 11 4 6 1024.1 1024.2 0.2
24/08:30am 7.5 5.3 6.4 93 0.5 W 7 9 4 5 1023.7 - 0.2
24/08:00am 6.7 5.0 6.1 96 0.3 W 4 7 2 4 1023.3 - 0.2
24/07:30am 5.6 2.8 5.0 96 0.3 W 9 11 5 6 1022.9 - 0.2
24/07:00am 4.6 2.0 4.2 97 0.2 WNW 7 9 4 5 1022.4 - 0.2
24/06:30am 4.1 1.4 3.7 97 0.2 W 7 9 4 5 1022.3 - 0.2
24/06:00am 3.6 0.0 3.0 96 0.2 W 11 13 6 7 1022.0 1022.1 0.0
24/05:30am 3.7 -0.3 3.1 96 0.2 W 13 15 7 8 1021.8 - 0.0
24/05:00am 3.3 0.1 2.9 97 0.2 W 9 15 5 8 1021.5 - 0.0
24/04:30am 3.0 -0.7 2.3 95 0.3 WSW 11 13 6 7 1021.4 - 0.0
24/04:00am 3.7 -0.3 3.1 96 0.2 WSW 13 15 7 8 1021.3 - 0.0
24/03:30am 3.9 -0.4 3.2 95 0.3 W 15 17 8 9 1021.1 - 0.0
24/03:00am 4.0 -0.7 3.4 96 0.2 W 17 19 9 10 1021.2 1021.2 0.0
24/02:30am 3.9 -0.8 3.2 95 0.3 W 17 19 9 10 1021.1 - 0.0
24/02:00am 4.2 -0.8 3.5 95 0.3 W 19 20 10 11 1021.2 - 0.0
24/01:30am 4.4 0.2 3.7 95 0.3 W 15 19 8 10 1021.1 - 0.0
24/01:00am 4.5 0.3 3.6 94 0.4 W 15 17 8 9 1020.9 - 0.0
24/12:30am 4.9 0.4 4.0 94 0.4 W 17 19 9 10 1020.8 - 0.0
24/12:00am 5.3 0.8 4.3 93 0.4 W 17 19 9 10 1020.7 1020.7 0.0
 
Date/Time
WST
Temp
°C
App
Temp
°C
Dew
Point
°C
Rel
Hum
%
Delta-T
°C
Wind Press
QNH
hPa
Press
MSL
hPa
Rain since
9am
mm
Dir  Spd
km/h
Gust
km/h
Spd
kts
Gust
kts
23/11:30pm 5.6 1.2 4.6 93 0.4 W 17 19 9 10 1020.6 - 0.0
23/11:00pm 5.4 0.9 4.2 92 0.5 W 17 19 9 10 1020.6 - 0.0
23/10:30pm 5.7 1.2 4.3 91 0.6 W 17 19 9 10 1020.6 - 0.0
23/10:00pm 6.0 1.9 4.6 91 0.6 W 15 17 8 9 1020.4 - 0.0
23/09:30pm 6.9 3.0 5.2 89 0.8 WSW 15 17 8 9 1020.3 - 0.0
23/09:00pm 7.2 3.3 5.3 88 0.8 WSW 15 17 8 9 1020.1 1020.1 0.0
23/08:30pm 7.7 3.8 5.5 86 1.0 WSW 15 19 8 10 1019.9 - 0.0
23/08:00pm 8.7 4.6 6.3 85 1.1 WSW 17 20 9 11 1019.7 - 0.0
23/07:30pm 8.7 4.6 6.3 85 1.1 SW 17 19 9 10 1019.4 - 0.0
23/07:00pm 8.6 5.2 6.1 84 1.2 SW 13 13 7 7 1019.1 - 0.0
23/06:30pm 9.9 6.7 7.0 82 1.4 SW 13 17 7 9 1018.7 - 0.0
23/06:00pm 10.7 7.2 7.4 80 1.6 SSW 15 19 8 10 1018.3 1018.3 0.0

Other Formats:

Comma delimited format used in spreadsheet applications
http://www.bom.gov.au/fwo/IDW60801/IDW60801.95646.axf

JavaScript Object Notation format (JSON) in row-major order
http://www.bom.gov.au/fwo/IDW60801/IDW60801.95646.json